createdAt,value
2018-09-16T00:01:05.189Z,19.50
2018-09-16T00:03:36.268Z,19.50
2018-09-16T00:06:08.526Z,19.40
2018-09-16T00:08:39.705Z,19.40
2018-09-16T00:11:10.442Z,19.40
2018-09-16T00:13:41.360Z,19.40
2018-09-16T00:16:12.254Z,19.30
2018-09-16T00:18:43.576Z,19.20
2018-09-16T00:21:14.208Z,19.20
2018-09-16T00:23:44.665Z,19.20
2018-09-16T00:26:15.072Z,19.20
2018-09-16T00:28:45.723Z,19.10
2018-09-16T00:31:16.569Z,19.00
2018-09-16T00:33:47.228Z,19.00
2018-09-16T00:36:17.722Z,18.80
2018-09-16T00:38:48.372Z,18.80
2018-09-16T00:41:19.009Z,18.70
2018-09-16T00:43:49.838Z,18.70
2018-09-16T00:46:20.323Z,18.80
2018-09-16T00:48:50.944Z,18.90
2018-09-16T00:51:21.343Z,18.90
2018-09-16T00:53:52.145Z,18.90
2018-09-16T00:56:22.743Z,18.90
2018-09-16T00:58:53.236Z,18.90
2018-09-16T01:01:23.767Z,18.90
2018-09-16T01:03:54.473Z,18.80
2018-09-16T01:06:30.308Z,18.80
2018-09-16T01:09:01.096Z,18.80
2018-09-16T01:11:31.729Z,18.70
2018-09-16T01:14:02.224Z,18.70
2018-09-16T01:16:32.689Z,18.60
2018-09-16T01:19:03.871Z,18.60
2018-09-16T01:21:34.463Z,18.50
2018-09-16T01:24:05.389Z,18.50
2018-09-16T01:26:36.515Z,18.40
2018-09-16T01:29:07.026Z,18.40
2018-09-16T01:31:37.547Z,18.40
2018-09-16T01:34:08.763Z,18.40
2018-09-16T01:36:40.113Z,18.40
2018-09-16T01:39:11.004Z,18.40
2018-09-16T01:41:41.723Z,18.50
2018-09-16T01:44:12.335Z,18.50
2018-09-16T01:46:43.414Z,18.50
2018-09-16T01:49:13.927Z,18.50
2018-09-16T01:51:44.316Z,18.40
2018-09-16T01:54:14.796Z,18.30
2018-09-16T01:56:45.375Z,18.30
2018-09-16T01:59:15.913Z,18.20
2018-09-16T02:01:46.516Z,18.20
2018-09-16T02:04:16.941Z,18.10
2018-09-16T02:06:47.434Z,18.10
2018-09-16T02:09:17.955Z,18.00
2018-09-16T02:11:48.433Z,18.00
2018-09-16T02:14:19.020Z,18.00
2018-09-16T02:16:49.603Z,18.00
2018-09-16T02:19:20.060Z,17.90
2018-09-16T02:21:50.503Z,18.00
2018-09-16T02:24:21.866Z,18.00
2018-09-16T02:26:52.540Z,18.00
2018-09-16T02:29:23.178Z,17.90
2018-09-16T02:31:53.596Z,17.90
2018-09-16T02:34:24.012Z,17.80
2018-09-16T02:36:54.471Z,17.70
2018-09-16T02:39:25.079Z,17.70
2018-09-16T02:41:55.448Z,17.70
2018-09-16T02:44:26.080Z,17.70
2018-09-16T02:46:56.519Z,17.80
2018-09-16T02:49:27.064Z,17.80
2018-09-16T02:51:57.514Z,17.80
2018-09-16T02:54:28.064Z,17.80
2018-09-16T02:56:58.588Z,17.80
2018-09-16T02:59:29.182Z,17.80
2018-09-16T03:01:59.782Z,17.90
2018-09-16T03:04:30.351Z,17.90
2018-09-16T03:07:01.350Z,17.90
2018-09-16T03:09:32.909Z,17.90
2018-09-16T03:12:03.451Z,17.70
2018-09-16T03:14:33.815Z,17.70
2018-09-16T03:17:04.364Z,17.70
2018-09-16T03:19:35.108Z,17.60
2018-09-16T03:22:05.825Z,17.50
2018-09-16T03:24:36.533Z,17.40
2018-09-16T03:27:07.081Z,17.40
2018-09-16T03:29:37.697Z,17.30
2018-09-16T03:32:08.180Z,17.30
2018-09-16T03:34:38.640Z,17.30
2018-09-16T03:37:09.145Z,17.30
2018-09-16T03:39:39.638Z,17.30
2018-09-16T03:42:10.136Z,17.40
2018-09-16T03:44:40.732Z,17.40
2018-09-16T03:47:11.258Z,17.40
2018-09-16T03:49:41.793Z,17.40
2018-09-16T03:52:12.159Z,17.40
2018-09-16T03:54:42.671Z,17.50
2018-09-16T03:57:13.259Z,17.50
2018-09-16T03:59:43.651Z,17.50
2018-09-16T04:02:14.199Z,17.60
2018-09-16T04:04:44.815Z,17.60
2018-09-16T04:07:15.259Z,17.60
2018-09-16T04:09:45.819Z,17.60
2018-09-16T04:12:16.271Z,17.60
2018-09-16T04:14:46.709Z,17.40
2018-09-16T04:17:17.212Z,17.20
2018-09-16T04:19:47.726Z,17.10
2018-09-16T04:22:18.192Z,17.10
2018-09-16T04:24:48.701Z,17.00
2018-09-16T04:27:19.246Z,17.00
2018-09-16T04:29:49.772Z,16.90
2018-09-16T04:32:20.262Z,16.90
2018-09-16T04:34:50.845Z,16.80
2018-09-16T04:37:21.846Z,16.80
2018-09-16T04:39:52.432Z,16.80
2018-09-16T04:42:23.368Z,16.80
2018-09-16T04:44:54.195Z,16.70
2018-09-16T04:47:25.018Z,16.70
2018-09-16T04:49:55.636Z,16.70
2018-09-16T04:52:26.243Z,16.80
2018-09-16T04:54:56.802Z,16.80
2018-09-16T04:57:27.424Z,16.90
2018-09-16T04:59:57.948Z,16.90
2018-09-16T05:02:28.440Z,16.80
2018-09-16T05:04:59.550Z,16.80
2018-09-16T05:07:30.062Z,16.70
2018-09-16T05:10:00.627Z,16.70
2018-09-16T05:12:31.194Z,16.70
2018-09-16T05:15:01.837Z,16.70
2018-09-16T05:17:32.361Z,16.70
2018-09-16T05:20:02.975Z,16.70
2018-09-16T05:22:33.484Z,16.60
2018-09-16T05:25:03.900Z,16.70
2018-09-16T05:27:34.515Z,16.80
2018-09-16T05:30:05.369Z,16.90
2018-09-16T05:32:36.193Z,17.10
2018-09-16T05:35:06.799Z,17.20
2018-09-16T05:37:37.338Z,17.50
2018-09-16T05:40:08.013Z,17.80
2018-09-16T05:42:38.750Z,18.10
2018-09-16T05:45:10.490Z,18.20
2018-09-16T05:47:40.996Z,18.50
2018-09-16T05:50:12.160Z,18.70
2018-09-16T05:52:43.055Z,18.90
2018-09-16T05:55:13.765Z,19.10
2018-09-16T05:57:44.386Z,19.40
2018-09-16T06:00:18.797Z,19.70
2018-09-16T06:02:51.249Z,19.90
2018-09-16T06:05:21.893Z,20.10
2018-09-16T06:07:52.393Z,20.20
2018-09-16T06:10:23.030Z,20.40
2018-09-16T06:12:53.579Z,20.50
2018-09-16T06:15:24.170Z,20.60
2018-09-16T06:17:54.807Z,20.80
2018-09-16T06:20:25.476Z,21.00
2018-09-16T06:22:56.104Z,21.30
2018-09-16T06:25:26.596Z,21.50
2018-09-16T06:27:57.335Z,21.70
2018-09-16T06:30:28.229Z,21.90
2018-09-16T06:32:58.880Z,22.10
2018-09-16T06:35:29.519Z,22.40
2018-09-16T06:38:00.257Z,22.60
2018-09-16T06:40:30.843Z,23.00
2018-09-16T06:43:01.619Z,23.30
2018-09-16T06:45:32.436Z,23.50
2018-09-16T06:48:03.125Z,23.70
2018-09-16T06:50:35.009Z,24.00
2018-09-16T06:53:06.564Z,24.30
2018-09-16T06:55:38.249Z,24.50
2018-09-16T06:58:09.368Z,24.60
2018-09-16T07:00:40.182Z,24.70
2018-09-16T07:03:11.894Z,24.70
2018-09-16T07:05:42.711Z,24.90
2018-09-16T07:08:14.053Z,25.00
2018-09-16T07:10:45.171Z,25.30
2018-09-16T07:13:16.593Z,25.30
2018-09-16T07:15:47.616Z,25.70
2018-09-16T07:18:20.028Z,25.90
2018-09-16T07:20:52.011Z,25.80
2018-09-16T07:23:22.888Z,26.10
2018-09-16T07:25:54.220Z,26.50
2018-09-16T07:28:25.057Z,26.10
2018-09-16T07:30:55.792Z,26.10
2018-09-16T07:33:27.653Z,26.40
2018-09-16T07:35:58.517Z,26.90
2018-09-16T07:38:31.024Z,27.40
2018-09-16T07:41:01.712Z,27.90
2018-09-16T07:43:33.039Z,28.20
2018-09-16T07:46:04.079Z,28.90
2018-09-16T07:48:35.102Z,29.30
2018-09-16T07:51:06.532Z,28.80
2018-09-16T07:53:37.309Z,29.00
2018-09-16T07:56:08.282Z,29.20
2018-09-16T07:58:39.138Z,30.20
2018-09-16T08:01:09.966Z,30.40
2018-09-16T08:03:41.172Z,30.30
2018-09-16T08:06:12.093Z,30.20
2018-09-16T08:08:42.799Z,30.20
2018-09-16T08:11:13.594Z,30.60
2018-09-16T08:13:44.318Z,30.60
2018-09-16T08:16:15.846Z,30.60
2018-09-16T08:18:47.526Z,30.00
2018-09-16T08:21:19.187Z,29.50
2018-09-16T08:23:49.980Z,29.70
2018-09-16T08:26:21.115Z,30.00
2018-09-16T08:28:52.025Z,30.60
2018-09-16T08:31:23.295Z,30.80
2018-09-16T08:33:54.093Z,31.30
2018-09-16T08:36:24.862Z,31.60
2018-09-16T08:38:55.655Z,31.10
2018-09-16T08:41:26.549Z,31.50
2018-09-16T08:43:57.749Z,31.30
2018-09-16T08:46:28.836Z,31.00
2018-09-16T08:48:59.571Z,31.30
2018-09-16T08:51:30.326Z,31.90
2018-09-16T08:54:01.414Z,32.10
2018-09-16T08:56:32.615Z,32.00
2018-09-16T08:59:03.363Z,31.70
2018-09-16T09:01:34.948Z,31.60
2018-09-16T09:04:05.972Z,32.00
2018-09-16T09:06:36.935Z,32.40
2018-09-16T09:09:11.088Z,32.90
2018-09-16T09:11:42.717Z,33.50
2018-09-16T09:14:13.812Z,33.00
2018-09-16T09:16:44.756Z,32.90
2018-09-16T09:19:15.516Z,33.40
2018-09-16T09:21:46.673Z,33.30
2018-09-16T09:24:18.730Z,32.80
2018-09-16T09:26:50.069Z,33.00
2018-09-16T09:29:20.881Z,33.80
2018-09-16T09:31:52.100Z,34.20
2018-09-16T09:34:23.067Z,34.50
2018-09-16T09:36:54.257Z,34.90
2018-09-16T09:39:24.896Z,34.70
2018-09-16T09:41:56.961Z,34.60
2018-09-16T09:44:27.729Z,34.90
2018-09-16T09:46:58.508Z,34.30
2018-09-16T09:49:29.261Z,34.00
2018-09-16T09:52:00.429Z,34.50
2018-09-16T09:54:31.088Z,35.10
2018-09-16T09:57:02.750Z,36.40
2018-09-16T09:59:33.676Z,35.80
2018-09-16T10:02:04.365Z,34.40
2018-09-16T10:04:35.139Z,35.30
2018-09-16T10:07:07.165Z,35.60
2018-09-16T10:09:38.177Z,35.80
2018-09-16T10:12:09.639Z,35.60
2018-09-16T10:14:45.566Z,35.30
2018-09-16T10:17:20.758Z,35.40
2018-09-16T10:19:52.227Z,35.60
2018-09-16T10:22:22.804Z,35.70
2018-09-16T10:24:53.639Z,35.00
2018-09-16T10:27:24.478Z,34.30
2018-09-16T10:29:55.607Z,34.70
2018-09-16T10:32:26.283Z,34.50
2018-09-16T10:34:57.339Z,34.80
2018-09-16T10:37:27.955Z,35.10
2018-09-16T10:39:59.286Z,35.20
2018-09-16T10:42:30.262Z,35.60
2018-09-16T10:45:00.768Z,35.10
2018-09-16T10:47:31.465Z,36.30
2018-09-16T10:50:02.202Z,36.50
2018-09-16T10:52:33.023Z,37.50
2018-09-16T10:55:03.703Z,38.10
2018-09-16T10:57:34.720Z,38.20
2018-09-16T11:00:05.368Z,37.10
2018-09-16T11:02:36.679Z,37.20
2018-09-16T11:05:07.946Z,37.50
2018-09-16T11:07:40.339Z,35.20
2018-09-16T11:10:11.893Z,33.50
2018-09-16T11:12:42.735Z,32.90
2018-09-16T11:15:14.053Z,33.40
2018-09-16T11:17:44.960Z,34.20
2018-09-16T11:20:16.086Z,35.10
2018-09-16T11:22:46.630Z,36.60
2018-09-16T11:25:17.984Z,36.60
2018-09-16T11:27:48.900Z,35.80
2018-09-16T11:30:21.181Z,35.70
2018-09-16T11:32:52.695Z,35.30
2018-09-16T11:35:23.712Z,35.70
2018-09-16T11:37:54.802Z,36.10
2018-09-16T11:40:28.421Z,37.30
2018-09-16T11:43:02.567Z,37.20
2018-09-16T11:45:34.849Z,37.50
2018-09-16T11:48:06.633Z,38.20
2018-09-16T11:50:39.362Z,38.20
2018-09-16T11:53:15.515Z,36.50
2018-09-16T11:55:49.826Z,36.00
2018-09-16T11:58:24.293Z,36.70
2018-09-16T12:00:58.088Z,37.00
2018-09-16T12:03:31.194Z,37.80
2018-09-16T12:06:03.638Z,38.50
2018-09-16T12:08:41.636Z,39.10
2018-09-16T12:11:21.837Z,38.60
2018-09-16T12:14:00.709Z,35.80
2018-09-16T12:16:38.313Z,35.10
2018-09-16T12:19:13.966Z,36.60
2018-09-16T12:21:48.329Z,37.50
2018-09-16T12:24:23.835Z,37.20
2018-09-16T12:26:58.426Z,34.90
2018-09-16T12:29:29.267Z,34.30
2018-09-16T12:32:01.870Z,34.60
2018-09-16T12:34:40.392Z,36.10
2018-09-16T12:37:17.199Z,36.00
2018-09-16T12:39:50.750Z,35.90
2018-09-16T12:42:23.197Z,35.30
2018-09-16T12:44:58.142Z,35.10
2018-09-16T12:47:31.034Z,34.60
2018-09-16T12:50:04.317Z,32.90
2018-09-16T12:52:37.095Z,32.90
2018-09-16T12:55:10.304Z,32.90
2018-09-16T12:57:42.229Z,31.70
2018-09-16T13:00:14.954Z,31.30
2018-09-16T13:02:51.897Z,30.50
2018-09-16T13:05:34.745Z,31.00
2018-09-16T13:08:15.065Z,31.20
2018-09-16T13:10:50.055Z,31.30
2018-09-16T13:13:31.220Z,31.10
2018-09-16T13:16:06.036Z,31.00
2018-09-16T13:18:47.878Z,31.00
2018-09-16T13:21:20.349Z,31.10
2018-09-16T13:23:52.549Z,31.30
2018-09-16T13:26:24.414Z,31.10
2018-09-16T13:28:56.091Z,31.10
2018-09-16T13:31:28.099Z,31.20
2018-09-16T13:34:04.844Z,31.10
2018-09-16T13:36:41.940Z,31.20
2018-09-16T13:39:19.150Z,31.50
2018-09-16T13:41:52.088Z,31.50
2018-09-16T13:44:25.603Z,31.60
2018-09-16T13:46:58.944Z,31.60
2018-09-16T13:49:34.054Z,31.60
2018-09-16T13:52:07.621Z,31.80
2018-09-16T13:54:44.832Z,32.00
2018-09-16T13:57:30.212Z,31.80
2018-09-16T14:00:09.944Z,31.80
2018-09-16T14:02:50.887Z,31.90
2018-09-16T14:05:26.036Z,31.90
2018-09-16T14:07:59.279Z,31.70
2018-09-16T14:10:31.477Z,31.40
2018-09-16T14:13:10.865Z,31.30
2018-09-16T14:15:44.956Z,31.00
2018-09-16T14:18:19.792Z,31.00
2018-09-16T14:20:54.391Z,31.00
2018-09-16T14:23:26.947Z,30.90
2018-09-16T14:26:06.002Z,30.80
2018-09-16T14:28:45.181Z,30.50
2018-09-16T14:31:21.721Z,30.20
2018-09-16T14:33:54.899Z,30.30
2018-09-16T14:36:29.955Z,30.20
2018-09-16T14:39:01.106Z,30.30
2018-09-16T14:41:32.270Z,30.20
2018-09-16T14:44:04.430Z,30.20
2018-09-16T14:46:35.049Z,30.20
2018-09-16T14:49:07.397Z,30.30
2018-09-16T14:51:38.632Z,30.50
2018-09-16T14:54:09.501Z,30.50
2018-09-16T14:56:40.514Z,30.50
2018-09-16T14:59:11.333Z,30.40
2018-09-16T15:01:42.737Z,30.30
2018-09-16T15:04:14.165Z,30.10
2018-09-16T15:06:45.500Z,29.90
2018-09-16T15:09:16.098Z,29.90
2018-09-16T15:11:46.895Z,29.80
2018-09-16T15:14:17.969Z,29.80
2018-09-16T15:16:48.935Z,29.80
2018-09-16T15:19:20.722Z,29.80
2018-09-16T15:21:51.394Z,29.20
2018-09-16T15:24:22.248Z,28.90
2018-09-16T15:26:53.135Z,28.40
2018-09-16T15:29:24.112Z,28.50
2018-09-16T15:31:55.440Z,28.80
2018-09-16T15:34:25.937Z,28.70
2018-09-16T15:36:56.636Z,28.70
2018-09-16T15:39:27.733Z,28.70
2018-09-16T15:41:58.480Z,28.60
2018-09-16T15:44:29.052Z,28.50
2018-09-16T15:47:00.129Z,28.50
2018-09-16T15:49:31.521Z,28.80
2018-09-16T15:52:02.503Z,28.90
2018-09-16T15:54:33.619Z,28.70
2018-09-16T15:57:04.246Z,28.40
2018-09-16T15:59:34.941Z,28.10
2018-09-16T16:02:05.863Z,28.20
2018-09-16T16:04:36.538Z,28.10
2018-09-16T16:07:07.639Z,27.90
2018-09-16T16:09:38.577Z,28.00
2018-09-16T16:12:09.240Z,28.00
2018-09-16T16:14:40.808Z,28.10
2018-09-16T16:17:11.915Z,27.90
2018-09-16T16:19:42.931Z,28.10
2018-09-16T16:22:16.949Z,28.10
2018-09-16T16:24:48.867Z,28.30
2018-09-16T16:27:20.578Z,28.60
2018-09-16T16:29:51.585Z,28.60
2018-09-16T16:32:27.147Z,28.60
2018-09-16T16:34:58.080Z,28.30
2018-09-16T16:37:31.731Z,28.20
2018-09-16T16:40:03.213Z,28.10
2018-09-16T16:42:34.090Z,28.00
2018-09-16T16:45:05.089Z,28.00
2018-09-16T16:47:35.598Z,28.00
2018-09-16T16:50:07.056Z,27.90
2018-09-16T16:52:37.958Z,27.90
2018-09-16T16:55:09.093Z,27.90
2018-09-16T16:57:39.938Z,27.60
2018-09-16T17:00:11.149Z,27.60
2018-09-16T17:02:41.718Z,27.60
2018-09-16T17:05:12.823Z,27.40
2018-09-16T17:07:43.622Z,27.30
2018-09-16T17:10:14.304Z,27.30
2018-09-16T17:12:45.047Z,27.20
2018-09-16T17:15:16.435Z,27.00
2018-09-16T17:17:53.860Z,27.00
2018-09-16T17:20:25.300Z,26.80
2018-09-16T17:22:56.382Z,26.80
2018-09-16T17:25:27.043Z,26.50
2018-09-16T17:27:58.897Z,26.20
2018-09-16T17:30:29.801Z,25.90
2018-09-16T17:33:00.513Z,25.70
2018-09-16T17:35:31.384Z,25.70
2018-09-16T17:38:02.463Z,25.50
2018-09-16T17:40:33.433Z,25.50
2018-09-16T17:43:04.349Z,25.30
2018-09-16T17:45:37.020Z,25.30
2018-09-16T17:48:08.349Z,25.30
2018-09-16T17:50:39.393Z,25.20
2018-09-16T17:53:11.606Z,25.10
2018-09-16T17:55:42.921Z,25.10
2018-09-16T17:58:13.833Z,25.10
2018-09-16T18:00:44.823Z,25.00
2018-09-16T18:03:15.821Z,24.90
2018-09-16T18:05:46.479Z,24.80
2018-09-16T18:08:17.699Z,24.90
2018-09-16T18:10:49.047Z,24.90
2018-09-16T18:13:20.189Z,24.90
2018-09-16T18:15:52.340Z,24.90
2018-09-16T18:18:24.569Z,24.90
2018-09-16T18:21:00.122Z,24.90
2018-09-16T18:23:33.958Z,24.90
2018-09-16T18:26:06.343Z,24.90
2018-09-16T18:28:38.831Z,24.90
2018-09-16T18:31:10.281Z,24.90
2018-09-16T18:33:43.727Z,24.70
2018-09-16T18:36:14.916Z,24.60
2018-09-16T18:38:46.435Z,24.50
2018-09-16T18:41:18.599Z,24.50
2018-09-16T18:43:53.618Z,24.50
2018-09-16T18:46:40.278Z,24.50
2018-09-16T18:49:20.759Z,24.50
2018-09-16T18:51:52.451Z,24.60
2018-09-16T18:54:23.914Z,24.60
2018-09-16T18:56:56.157Z,24.50
2018-09-16T18:59:26.853Z,24.50
2018-09-16T19:01:57.800Z,24.40
2018-09-16T19:04:28.689Z,24.30
2018-09-16T19:06:59.685Z,24.30
2018-09-16T19:09:31.063Z,24.30
2018-09-16T19:12:02.709Z,24.20
2018-09-16T19:14:34.470Z,24.20
2018-09-16T19:17:07.292Z,24.10
2018-09-16T19:19:39.156Z,23.80
2018-09-16T19:22:11.398Z,23.50
2018-09-16T19:24:42.959Z,23.40
2018-09-16T19:27:14.268Z,23.30
2018-09-16T19:29:46.148Z,23.30
2018-09-16T19:32:19.247Z,23.20
2018-09-16T19:34:57.546Z,23.00
2018-09-16T19:37:29.298Z,22.90
2018-09-16T19:40:01.360Z,22.80
2018-09-16T19:42:33.373Z,22.80
2018-09-16T19:45:07.829Z,22.70
2018-09-16T19:47:41.282Z,22.70
2018-09-16T19:50:14.935Z,22.70
2018-09-16T19:52:48.331Z,22.70
2018-09-16T19:55:19.328Z,22.70
2018-09-16T19:57:51.136Z,22.70
2018-09-16T20:00:22.948Z,22.70
2018-09-16T20:02:56.065Z,22.60
2018-09-16T20:05:28.792Z,22.60
2018-09-16T20:08:01.434Z,22.50
2018-09-16T20:10:34.781Z,22.30
2018-09-16T20:13:06.889Z,22.30
2018-09-16T20:15:39.117Z,22.30
2018-09-16T20:18:12.426Z,22.20
2018-09-16T20:20:44.773Z,22.20
2018-09-16T20:23:16.995Z,22.20
2018-09-16T20:25:48.167Z,22.10
2018-09-16T20:28:20.311Z,22.00
2018-09-16T20:30:56.153Z,21.80
2018-09-16T20:33:29.633Z,21.70
2018-09-16T20:36:01.172Z,21.70
2018-09-16T20:38:34.597Z,21.70
2018-09-16T20:41:06.676Z,21.70
2018-09-16T20:43:39.651Z,21.70
2018-09-16T20:46:14.277Z,21.70
2018-09-16T20:48:46.816Z,21.80
2018-09-16T20:51:19.668Z,21.90
2018-09-16T20:53:56.007Z,21.90
2018-09-16T20:56:31.331Z,21.90
2018-09-16T20:59:12.739Z,21.90
2018-09-16T21:01:45.697Z,21.70
2018-09-16T21:04:19.286Z,21.70
2018-09-16T21:06:53.256Z,21.60
2018-09-16T21:09:26.833Z,21.70
2018-09-16T21:12:01.340Z,21.70
2018-09-16T21:14:34.178Z,21.70
2018-09-16T21:17:06.036Z,21.70
2018-09-16T21:19:37.098Z,21.60
2018-09-16T21:22:08.084Z,21.50
2018-09-16T21:24:39.033Z,21.50
2018-09-16T21:27:11.731Z,21.40
2018-09-16T21:29:42.967Z,21.40
2018-09-16T21:32:13.655Z,21.30
2018-09-16T21:34:45.637Z,21.30
2018-09-16T21:37:16.597Z,21.30
2018-09-16T21:39:47.851Z,21.30
2018-09-16T21:42:18.987Z,21.30
2018-09-16T21:44:50.643Z,21.10
2018-09-16T21:47:21.765Z,21.00
2018-09-16T21:49:52.940Z,21.10
2018-09-16T21:52:24.305Z,21.10
2018-09-16T21:54:55.695Z,21.10
2018-09-16T21:57:26.538Z,21.20
2018-09-16T21:59:57.228Z,21.10
2018-09-16T22:02:27.995Z,21.10
2018-09-16T22:04:59.449Z,21.00
2018-09-16T22:07:30.521Z,21.00
2018-09-16T22:10:01.174Z,21.00
2018-09-16T22:12:31.883Z,21.00
2018-09-16T22:15:02.608Z,20.90
2018-09-16T22:17:33.245Z,20.90
2018-09-16T22:20:04.022Z,20.80
2018-09-16T22:22:34.706Z,20.80
2018-09-16T22:25:05.352Z,20.70
2018-09-16T22:27:35.866Z,20.70
2018-09-16T22:30:06.858Z,20.70
2018-09-16T22:32:37.423Z,20.70
2018-09-16T22:35:08.000Z,20.60
2018-09-16T22:37:38.671Z,20.60
2018-09-16T22:40:08.636Z,20.60
2018-09-16T22:42:39.057Z,20.60
2018-09-16T22:45:09.492Z,20.60
2018-09-16T22:47:40.143Z,20.50
2018-09-16T22:50:10.687Z,20.60
2018-09-16T22:52:41.220Z,20.60
2018-09-16T22:55:11.695Z,20.60
2018-09-16T22:57:42.182Z,20.60
2018-09-16T23:00:16.980Z,20.60
2018-09-16T23:02:47.583Z,20.50
2018-09-16T23:05:18.164Z,20.50
2018-09-16T23:07:48.692Z,20.50
2018-09-16T23:10:19.260Z,20.40
2018-09-16T23:12:49.878Z,20.40
2018-09-16T23:15:20.296Z,20.40
2018-09-16T23:17:50.882Z,20.30
2018-09-16T23:41:55.591Z,20.10
2018-09-16T23:44:26.209Z,20.00
2018-09-16T23:46:56.859Z,19.90
2018-09-16T23:53:02.566Z,19.90
2018-09-16T23:55:33.186Z,20.00
2018-09-16T23:58:03.657Z,20.00
